createdAt,value
2022-11-21T00:00:46.921Z,11.20
2022-11-21T00:04:12.028Z,11.15
2022-11-21T00:07:12.004Z,9.13
2022-11-21T00:10:23.916Z,11.63
2022-11-21T00:13:36.930Z,12.13
2022-11-21T00:17:01.966Z,11.20
2022-11-21T00:20:04.958Z,10.07
2022-11-21T00:23:20.995Z,11.35
2022-11-21T00:26:33.149Z,11.27
2022-11-21T00:29:45.976Z,10.85
2022-11-21T00:33:00.033Z,10.87
2022-11-21T00:36:11.975Z,9.70
2022-11-21T00:39:12.028Z,9.73
2022-11-21T00:42:24.049Z,11.60
2022-11-21T00:45:36.031Z,10.50
2022-11-21T00:49:02.033Z,10.10
2022-11-21T00:52:02.143Z,10.75
2022-11-21T00:55:14.096Z,10.05
2022-11-21T00:58:14.120Z,11.67
2022-11-21T01:01:38.089Z,9.77
2022-11-21T01:04:52.192Z,10.65
2022-11-21T01:08:07.082Z,10.20
2022-11-21T01:11:07.189Z,11.30
2022-11-21T01:14:31.186Z,11.87
2022-11-21T01:17:31.193Z,12.03
2022-11-21T01:20:57.172Z,11.70
2022-11-21T01:24:09.364Z,10.65
2022-11-21T01:27:22.175Z,11.70
2022-11-21T01:30:26.200Z,8.57
2022-11-21T01:33:38.186Z,10.13
2022-11-21T01:36:51.230Z,11.30
2022-11-21T01:40:03.212Z,12.40
2022-11-21T01:43:18.205Z,10.90
2022-11-21T01:46:42.284Z,10.63
2022-11-21T01:49:54.302Z,12.03
2022-11-21T01:53:19.226Z,7.95
2022-11-21T01:56:34.325Z,13.30
2022-11-21T01:59:58.249Z,10.57
2022-11-21T02:03:25.293Z,12.20
2022-11-21T02:06:50.404Z,10.90
2022-11-21T02:10:04.267Z,11.77
2022-11-21T02:13:16.282Z,10.10
2022-11-21T02:16:28.311Z,10.87
2022-11-21T02:19:55.334Z,10.10
2022-11-21T02:23:07.323Z,14.40
2022-11-21T02:26:33.393Z,12.70
2022-11-21T02:29:45.362Z,9.37
2022-11-21T02:33:09.416Z,8.97
2022-11-21T02:36:22.370Z,11.90
2022-11-21T02:39:46.403Z,8.93
2022-11-21T02:43:00.432Z,11.70
2022-11-21T02:46:12.575Z,10.20
2022-11-21T02:49:24.439Z,8.77
2022-11-21T02:52:39.496Z,9.67
2022-11-21T02:55:51.422Z,12.53
2022-11-21T02:59:19.406Z,11.93
2022-11-21T03:02:19.516Z,11.47
2022-11-21T03:05:44.503Z,11.10
2022-11-21T03:08:44.496Z,12.90
2022-11-21T03:12:08.510Z,10.53
2022-11-21T03:15:21.490Z,9.30
2022-11-21T03:18:33.540Z,9.50
2022-11-21T03:21:33.508Z,8.50
2022-11-21T03:24:58.551Z,9.73
2022-11-21T03:27:58.597Z,8.47
2022-11-21T03:31:24.598Z,10.47
2022-11-21T03:34:36.534Z,10.63
2022-11-21T03:37:51.582Z,10.23
2022-11-21T03:40:51.557Z,10.93
2022-11-21T03:44:16.605Z,11.23
2022-11-21T03:47:30.657Z,10.35
2022-11-21T03:50:43.626Z,9.20
2022-11-21T03:53:56.664Z,10.13
2022-11-21T03:57:08.677Z,9.60
2022-11-21T04:00:11.666Z,10.33
2022-11-21T04:03:37.714Z,9.95
2022-11-21T04:06:40.662Z,10.20
2022-11-21T04:09:53.659Z,11.55
2022-11-21T04:12:53.724Z,7.80
2022-11-21T04:16:05.726Z,9.93
2022-11-21T04:19:18.724Z,9.17
2022-11-21T04:22:31.725Z,8.93
2022-11-21T04:25:31.703Z,10.45
2022-11-21T04:28:44.731Z,8.65
2022-11-21T04:31:44.748Z,10.80
2022-11-21T04:35:13.734Z,12.43
2022-11-21T04:38:13.805Z,8.87
2022-11-21T04:41:25.817Z,9.77
2022-11-21T04:44:26.147Z,11.00
2022-11-21T04:47:37.811Z,10.50
2022-11-21T04:50:51.806Z,11.80
2022-11-21T04:54:03.789Z,10.50
2022-11-21T04:57:03.876Z,11.10
2022-11-21T05:00:30.856Z,9.60
2022-11-21T05:03:30.831Z,9.75
2022-11-21T05:06:56.855Z,8.23
2022-11-21T05:10:08.887Z,10.93
2022-11-21T05:13:21.096Z,11.27
2022-11-21T05:16:20.881Z,8.25
2022-11-21T05:19:32.892Z,13.15
2022-11-21T05:22:45.931Z,9.17
2022-11-21T05:25:58.926Z,8.80
2022-11-21T05:28:59.924Z,9.37
2022-11-21T05:32:11.928Z,9.97
2022-11-21T05:35:11.994Z,9.35
2022-11-21T05:38:38.937Z,12.60
2022-11-21T05:41:38.936Z,10.70
2022-11-21T05:44:39.340Z,11.03
2022-11-21T05:47:40.033Z,10.10
2022-11-21T05:50:51.964Z,10.17
2022-11-21T05:54:06.038Z,11.23
2022-11-21T05:57:30.981Z,11.57
2022-11-21T06:00:34.016Z,8.23
2022-11-21T06:03:45.250Z,11.67
2022-11-21T06:06:57.029Z,11.03
2022-11-21T06:10:23.039Z,10.83
2022-11-21T06:13:23.081Z,11.20
2022-11-21T06:16:47.002Z,9.23
2022-11-21T06:19:50.188Z,10.55
2022-11-21T06:23:03.075Z,8.50
2022-11-21T06:26:22.131Z,11.57
2022-11-21T06:29:34.112Z,9.77
2022-11-21T06:32:34.167Z,13.20
2022-11-21T06:35:58.086Z,11.77
2022-11-21T06:39:10.152Z,9.23
2022-11-21T06:42:36.141Z,10.25
2022-11-21T06:45:36.180Z,9.63
2022-11-21T06:49:00.146Z,9.70
2022-11-21T06:52:12.219Z,11.10
2022-11-21T06:55:25.220Z,11.50
2022-11-21T06:58:39.210Z,12.15
2022-11-21T07:01:55.295Z,9.90
2022-11-21T07:05:07.243Z,11.33
2022-11-21T07:08:19.202Z,11.40
2022-11-21T07:11:31.299Z,11.37
2022-11-21T07:14:57.322Z,11.70
2022-11-21T07:17:57.272Z,10.07
2022-11-21T07:21:22.248Z,10.33
2022-11-21T07:24:22.365Z,10.43
2022-11-21T07:27:34.288Z,11.13
2022-11-21T07:30:48.280Z,10.00
2022-11-21T07:34:01.377Z,14.00
2022-11-21T07:37:01.333Z,13.17
2022-11-21T07:40:13.340Z,10.80
2022-11-21T07:43:25.363Z,11.20
2022-11-21T07:46:51.405Z,13.43
2022-11-21T07:49:54.345Z,12.97
2022-11-21T07:53:21.337Z,12.90
2022-11-21T07:56:22.344Z,12.43
2022-11-21T07:59:34.350Z,13.40
2022-11-21T08:02:47.424Z,12.55
2022-11-21T08:06:11.439Z,12.40
2022-11-21T08:09:11.406Z,10.77
2022-11-21T08:12:35.438Z,12.80
2022-11-21T08:15:35.464Z,12.50
2022-11-21T08:19:01.446Z,13.50
2022-11-21T08:22:01.414Z,13.10
2022-11-21T08:25:14.442Z,13.17
2022-11-21T08:28:15.452Z,17.73
2022-11-21T08:31:39.509Z,14.80
2022-11-21T08:34:53.493Z,12.70
2022-11-21T08:38:20.545Z,12.60
2022-11-21T08:41:50.225Z,13.60
2022-11-21T08:45:02.537Z,14.43
2022-11-21T08:48:02.507Z,13.20
2022-11-21T08:51:28.577Z,11.43
2022-11-21T08:54:40.532Z,13.65
2022-11-21T08:58:04.602Z,10.13
2022-11-21T09:01:04.655Z,13.30
2022-11-21T09:04:16.634Z,13.87
2022-11-21T09:07:33.595Z,12.30
2022-11-21T09:10:45.546Z,13.17
2022-11-21T09:13:45.665Z,12.80
2022-11-21T09:17:03.590Z,14.60
2022-11-21T09:20:03.782Z,12.83
2022-11-21T09:23:30.579Z,11.43
2022-11-21T09:26:30.623Z,12.00
2022-11-21T09:29:43.506Z,12.67
2022-11-21T09:32:54.710Z,15.20
2022-11-21T09:36:06.712Z,16.97
2022-11-21T09:39:20.711Z,13.23
2022-11-21T09:42:50.753Z,14.10
2022-11-21T09:46:03.856Z,15.73
2022-11-21T09:49:29.992Z,14.47
2022-11-21T09:52:41.732Z,16.60
2022-11-21T09:56:10.686Z,14.25
2022-11-21T09:59:27.712Z,16.83
2022-11-21T10:02:55.817Z,12.00
2022-11-21T10:06:19.751Z,16.13
2022-11-21T10:09:34.754Z,13.33
2022-11-21T10:13:00.803Z,12.63
2022-11-21T10:16:15.820Z,17.83
2022-11-21T10:19:41.920Z,16.95
2022-11-21T10:22:59.853Z,13.80
2022-11-21T10:26:29.848Z,13.03
2022-11-21T10:29:45.841Z,17.73
2022-11-21T10:33:09.916Z,14.63
2022-11-21T10:36:21.856Z,16.10
2022-11-21T10:39:45.828Z,17.50
2022-11-21T10:42:57.899Z,14.40
2022-11-21T10:46:22.887Z,14.07
2022-11-21T10:49:34.942Z,12.95
2022-11-21T10:52:58.931Z,16.07
2022-11-21T10:56:16.892Z,14.60
2022-11-21T10:59:43.945Z,15.63
2022-11-21T11:02:56.921Z,13.90
2022-11-21T11:06:20.959Z,14.43
2022-11-21T11:09:34.016Z,14.35
2022-11-21T11:12:48.571Z,15.30
2022-11-21T11:16:04.001Z,15.70
2022-11-21T11:19:38.451Z,12.80
2022-11-21T11:22:51.020Z,14.23
2022-11-21T11:26:19.044Z,12.75
2022-11-21T11:29:33.970Z,13.83
2022-11-21T11:32:58.069Z,14.35
2022-11-21T11:36:12.069Z,12.10
2022-11-21T11:39:39.172Z,16.53
2022-11-21T11:43:06.146Z,15.00
2022-11-21T11:46:37.528Z,10.60
2022-11-21T11:49:52.119Z,11.50
2022-11-21T11:53:19.233Z,12.30
2022-11-21T11:56:31.145Z,14.20
2022-11-21T11:59:56.128Z,11.47
2022-11-21T12:03:12.159Z,12.30
2022-11-21T12:07:31.424Z,12.85
2022-11-21T12:09:51.110Z,12.60
2022-11-21T12:13:15.143Z,12.70
2022-11-21T12:16:27.198Z,12.63
2022-11-21T12:19:51.201Z,11.23
2022-11-21T12:22:51.220Z,14.40
2022-11-21T12:26:17.241Z,12.50
2022-11-21T12:29:31.487Z,16.47
2022-11-21T12:33:00.230Z,13.47
2022-11-21T12:36:26.203Z,15.23
2022-11-21T12:39:57.215Z,12.40
2022-11-21T12:43:11.281Z,14.47
2022-11-21T12:46:38.274Z,13.97
2022-11-21T12:49:55.870Z,13.90
2022-11-21T12:53:28.737Z,12.87
2022-11-21T12:56:42.246Z,12.00
2022-11-21T13:00:10.291Z,14.97
2022-11-21T13:03:29.301Z,15.47
2022-11-21T13:06:53.318Z,16.40
2022-11-21T13:10:06.365Z,14.25
2022-11-21T13:13:31.384Z,15.13
2022-11-21T13:16:51.340Z,15.43
2022-11-21T13:20:16.423Z,22.50
2022-11-21T13:23:32.411Z,15.17
2022-11-21T13:27:15.407Z,16.57
2022-11-21T13:30:47.453Z,15.40
2022-11-21T13:34:19.415Z,17.20
2022-11-21T13:37:19.424Z,18.00
2022-11-21T13:41:03.519Z,17.50
2022-11-21T13:44:03.460Z,16.20
2022-11-21T13:47:28.474Z,18.30
2022-11-21T13:50:43.455Z,17.45
2022-11-21T13:54:31.561Z,15.20
2022-11-21T13:57:46.508Z,20.20
2022-11-21T14:01:15.484Z,17.27
2022-11-21T14:04:54.559Z,21.30
2022-11-21T14:08:07.592Z,20.10
2022-11-21T14:11:43.587Z,19.90
2022-11-21T14:14:59.486Z,20.60
2022-11-21T14:18:23.566Z,19.50
2022-11-21T14:21:42.538Z,17.70
2022-11-21T14:25:09.612Z,16.37
2022-11-21T14:28:21.535Z,15.73
2022-11-21T14:31:33.628Z,16.53
2022-11-21T14:34:51.572Z,19.55
2022-11-21T14:38:15.672Z,20.60
2022-11-21T14:41:48.582Z,24.53
2022-11-21T14:45:13.662Z,19.20
2022-11-21T14:48:13.607Z,20.67
2022-11-21T14:51:39.696Z,18.43
2022-11-21T14:55:22.357Z,19.70
2022-11-21T14:58:18.653Z,20.77
2022-11-21T15:01:30.685Z,21.13
2022-11-21T15:04:55.660Z,21.03
2022-11-21T15:08:38.668Z,21.60
2022-11-21T15:11:31.677Z,23.60
2022-11-21T15:14:47.192Z,24.43
2022-11-21T15:18:26.861Z,25.40
2022-11-21T15:21:22.746Z,24.90
2022-11-21T15:24:54.760Z,25.53
2022-11-21T15:28:06.714Z,27.37
2022-11-21T15:31:41.776Z,26.13
2022-11-21T15:34:41.881Z,30.10
2022-11-21T15:38:12.821Z,27.45
2022-11-21T15:41:28.870Z,30.13
2022-11-21T15:44:40.774Z,27.97
2022-11-21T15:47:54.775Z,30.25
2022-11-21T15:51:07.909Z,27.65
2022-11-21T15:54:07.876Z,34.65
2022-11-21T15:57:32.904Z,42.85
2022-11-21T16:00:32.891Z,35.53
2022-11-21T16:03:58.903Z,27.23
2022-11-21T16:06:58.848Z,29.50
2022-11-21T16:10:18.388Z,36.13
2022-11-21T16:13:10.892Z,31.30
2022-11-21T16:16:25.968Z,31.30
2022-11-21T16:19:38.901Z,32.27
2022-11-21T16:22:50.896Z,31.37
2022-11-21T16:26:03.127Z,31.77
2022-11-21T16:29:27.348Z,30.95
2022-11-21T16:32:27.005Z,29.07
2022-11-21T16:35:54.010Z,29.20
2022-11-21T16:39:12.356Z,34.67
2022-11-21T16:42:38.068Z,36.30
2022-11-21T16:45:37.953Z,31.23
2022-11-21T16:48:51.040Z,32.25
2022-11-21T16:52:05.056Z,31.70
2022-11-21T16:55:19.015Z,29.45
2022-11-21T16:58:30.992Z,32.50
2022-11-21T17:01:44.167Z,29.87
2022-11-21T17:04:45.067Z,29.00
2022-11-21T17:08:12.071Z,29.33
2022-11-21T17:11:12.056Z,31.80
2022-11-21T17:14:36.048Z,29.70
2022-11-21T17:17:36.071Z,26.37
2022-11-21T17:20:48.146Z,29.60
2022-11-21T17:24:02.079Z,24.70
2022-11-21T17:27:17.124Z,25.43
2022-11-21T17:30:18.139Z,23.95
2022-11-21T17:33:30.160Z,24.40
2022-11-21T17:36:46.176Z,23.70
2022-11-21T17:40:11.168Z,20.67
2022-11-21T17:43:11.252Z,22.47
2022-11-21T17:46:35.150Z,22.53
2022-11-21T17:49:35.183Z,24.77
2022-11-21T17:52:47.180Z,19.70
2022-11-21T17:56:01.232Z,22.77
2022-11-21T17:59:26.580Z,22.47
2022-11-21T18:02:26.351Z,22.33
2022-11-21T18:05:38.315Z,20.43
2022-11-21T18:08:38.256Z,22.80
2022-11-21T18:12:06.218Z,21.53
2022-11-21T18:15:09.233Z,23.85
2022-11-21T18:18:22.258Z,22.07
2022-11-21T18:21:35.351Z,24.83
2022-11-21T18:24:47.313Z,24.93
2022-11-21T18:28:00.327Z,24.47
2022-11-21T18:31:28.340Z,20.03
2022-11-21T18:34:28.319Z,18.85
2022-11-21T18:37:43.335Z,22.77
2022-11-21T18:40:43.355Z,27.53
2022-11-21T18:44:09.365Z,24.53
2022-11-21T18:47:20.091Z,22.03
2022-11-21T18:50:22.330Z,21.10
2022-11-21T18:53:22.348Z,26.10
2022-11-21T18:56:47.311Z,27.27
2022-11-21T19:00:00.448Z,23.57
2022-11-21T19:03:12.377Z,23.53
2022-11-21T19:06:25.464Z,27.70
2022-11-21T19:09:41.466Z,21.60
2022-11-21T19:12:53.466Z,30.50
2022-11-21T19:16:19.461Z,25.95
2022-11-21T19:19:34.717Z,28.70
2022-11-21T19:22:44.437Z,26.40
2022-11-21T19:25:56.543Z,31.70
2022-11-21T19:29:08.476Z,25.10
2022-11-21T19:32:22.509Z,29.60
2022-11-21T19:35:35.523Z,32.05
2022-11-21T19:38:35.475Z,28.70
2022-11-21T19:41:47.547Z,28.03
2022-11-21T19:44:47.521Z,27.27
2022-11-21T19:48:13.498Z,28.73
2022-11-21T19:51:25.611Z,28.85
2022-11-21T19:54:38.609Z,26.17
2022-11-21T19:57:38.656Z,27.33
2022-11-21T20:00:50.557Z,28.50
2022-11-21T20:04:16.569Z,23.93
2022-11-21T20:07:16.639Z,27.73
2022-11-21T20:10:29.573Z,26.40
2022-11-21T20:13:29.615Z,24.35
2022-11-21T20:16:54.662Z,24.00
2022-11-21T20:20:08.662Z,22.40
2022-11-21T20:23:20.693Z,23.60
2022-11-21T20:26:32.682Z,21.80
2022-11-21T20:29:44.683Z,28.03
2022-11-21T20:32:56.659Z,22.20
2022-11-21T20:36:27.739Z,23.55
2022-11-21T20:39:39.805Z,23.03
2022-11-21T20:42:51.727Z,24.50
2022-11-21T20:46:10.746Z,23.07
2022-11-21T20:49:19.764Z,18.70
2022-11-21T20:55:46.755Z,19.80
2022-11-21T20:58:58.735Z,19.87
2022-11-21T21:02:13.939Z,19.37
2022-11-21T21:05:13.816Z,19.20
2022-11-21T21:08:43.874Z,19.43
2022-11-21T21:11:52.956Z,18.60
2022-11-21T21:14:56.868Z,18.55
2022-11-21T21:17:56.862Z,19.05
2022-11-21T21:21:27.834Z,19.13
2022-11-21T21:24:44.841Z,17.70
2022-11-21T21:28:08.820Z,16.63
2022-11-21T21:31:11.849Z,20.10
2022-11-21T21:34:23.835Z,20.40
2022-11-21T21:37:23.932Z,21.30
2022-11-21T21:40:54.935Z,17.43
2022-11-21T21:43:54.940Z,19.00
2022-11-21T21:47:06.926Z,18.13
2022-11-21T21:50:10.204Z,14.33
2022-11-21T21:53:18.930Z,13.75
2022-11-21T21:56:32.970Z,14.30
2022-11-21T21:59:46.078Z,15.70
2022-11-21T22:02:45.931Z,17.03
2022-11-21T22:05:57.976Z,17.83
2022-11-21T22:09:09.965Z,14.23
2022-11-21T22:12:38.862Z,14.63
2022-11-21T22:15:36.002Z,15.07
2022-11-21T22:19:03.039Z,13.87
2022-11-21T22:22:03.111Z,17.37
2022-11-21T22:25:27.979Z,13.67
2022-11-21T22:28:42.034Z,12.40
2022-11-21T22:31:54.036Z,15.40
2022-11-21T22:34:54.139Z,14.10
2022-11-21T22:38:06.084Z,13.45
2022-11-21T22:41:25.129Z,11.23
2022-11-21T22:44:57.116Z,11.60
2022-11-21T22:48:09.058Z,12.50
2022-11-21T22:51:33.103Z,12.37
2022-11-21T22:54:33.110Z,13.80
2022-11-21T22:57:58.134Z,11.73
2022-11-21T23:01:12.152Z,11.77
2022-11-21T23:04:24.131Z,12.47
2022-11-21T23:07:27.173Z,11.33
2022-11-21T23:10:39.179Z,10.97
2022-11-21T23:13:39.222Z,11.07
2022-11-21T23:17:06.173Z,10.50
2022-11-21T23:20:06.192Z,10.33
2022-11-21T23:23:21.264Z,10.13
2022-11-21T23:26:33.279Z,10.73
2022-11-21T23:29:45.206Z,9.87
2022-11-21T23:32:59.311Z,12.37
2022-11-21T23:36:11.302Z,10.57
2022-11-21T23:39:11.227Z,11.10
2022-11-21T23:42:23.291Z,9.70
2022-11-21T23:45:24.264Z,10.73
2022-11-21T23:48:49.299Z,10.10
2022-11-21T23:51:37.720Z,10.40
2022-11-21T23:54:50.261Z,8.57
2022-11-21T23:57:50.302Z,9.27
